KCNU

Chanute Martin Johnson Airport

Chanute, Kansas, USA
METAR KCNU 230952Z AUTO 26003KT 7SM OVC004 02/01 A3023 RMK AO2 SLP243 T00170011
Observed Flight Rules
Feb-23 @ 09:52 UTC (37 minutes ago) Instrument Flight Rules
Wind Visibility Clouds
260° at 3 knots 7 miles
  • Overcast at 400' AGL
Temperatures Readings
Current 2°C / 36°F
Dewpoint 1°C / 34°F
Humidity 93%
Altimeter 30.23" Hg
Pressure 1024.3 hPa
Elevation 297
METAR KCNU 230952Z AUTO 26003KT 7SM OVC004 02/01 A3023 RMK AO2 SLP243 T00170011
Observed Flight Rules
Feb-23 @ 09:52 UTC
(37 minutes ago)
LIFR
Wind Visibility
260° at 3 knots 7 miles
Clouds
  • Overcast at 400' AGL
Temperature Dewpoint
2°C / 36°F 1°C / 34°F
Humidity Altimeter Pressure
93% 30.23" Hg 1024.3 hPa